Terminal Aerodrome Forecast
Issued by NWS Greer, SC

Current Version | Previous Version | Text Only | Print | Product List | Glossary On
Versions: 1 2 3 4 5 6 7 8 9 10 11 12 13 14 15
000
FTUS42 KGSP 011121
TAFGSP
TAF
KGSP 011121Z 0112/0212 24005KT P6SM SKC
     FM011400 24008KT P6SM FEW060 SCT160
     FM011800 24010G17KT P6SM SCT060 BKN160
      TEMPO 0118/0122 4SM TSRA BKN040CB
     FM020100 26005KT P6SM BKN060=

USA.gov is the U.S. government's official web portal to all federal, state and local government web resources and services.